OOCL Long Beach — VRYO4 — position and weather

sailwx.info

Track history (hours):
 
Tides and Currents Weather Stations Pressure Air Temp Water Temp Dewpoint Dewpoint Depression Visibility Wind Speed Wind Dir Waves Ship Positions

OOCL Long Beach

Last reported at 2015-Aug-25 06:30 UTC. Time now 2015-Sep-02 00:23 UTC.
Position N 22°14' E 114°49'.

Length 323 m; beam 42.8 m; draft 14.5 m.

Type: Cargo ship. MMSI: 477316000.

Date/timePositionNaut miles runAvg speedWind from/ knotsBaromVisibWave heightAir tempDewpointWater temp
2015-Aug-25 06:30N 22°14' E 114°49'3717.0
2015-Aug-25 04:21N 22°34' E 114°16'28 1.1
2015-Aug-24 03:14N 22°08' E 114°25'9 8.6
2015-Aug-24 02:12N 22°07' E 114°15'15 9.0
2015-Aug-24 00:33N 22°19' E 114°06'2 2.1
2015-Aug-23 23:23N 22°21' E 114°07'0 0.0
2015-Aug-23 22:29N 22°21' E 114°07'0 0.0
2015-Aug-23 21:32N 22°21' E 114°07'0 0.0
2015-Aug-23 20:32N 22°21' E 114°07'0 0.0
2015-Aug-23 19:32N 22°21' E 114°07'0 0.0
2015-Aug-23 18:32N 22°21' E 114°07'0 0.0
2015-Aug-23 17:14N 22°21' E 114°07'0 0.0
2015-Aug-23 15:29N 22°21' E 114°07'0 0.1
2015-Aug-23 14:33N 22°21' E 114°07'9 7.1
2015-Aug-23 13:19N 22°21' E 113°57'10 9.8
2015-Aug-23 12:16N 22°29' E 113°52'4 0.3
2015-Aug-22 23:33N 22°25' E 113°53'1210.7
2015-Aug-22 22:26N 22°20' E 114°05'2 2.4
2015-Aug-22 21:32N 22°21' E 114°07'0 0.0
2015-Aug-22 20:29N 22°21' E 114°07'0 0.0
2015-Aug-22 19:32N 22°21' E 114°07'0 0.0
2015-Aug-22 18:29N 22°21' E 114°07'0 0.0
2015-Aug-22 17:29N 22°21' E 114°07'0 0.0
2015-Aug-22 16:32N 22°21' E 114°07'0 0.0
2015-Aug-22 15:32N 22°21' E 114°07'0 0.0
2015-Aug-22 14:32N 22°21' E 114°07'0 0.0
2015-Aug-22 13:32N 22°21' E 114°07'0 0.0
2015-Aug-22 12:32N 22°21' E 114°07'0 0.0
2015-Aug-22 11:32N 22°21' E 114°07'0 0.0
2015-Aug-22 10:32N 22°21' E 114°07'0 0.1
2015-Aug-22 09:33N 22°21' E 114°07'8 7.6
2015-Aug-22 08:26N 22°13' E 114°10'8 9.1
2015-Aug-22 07:33N 22°09' E 114°18'5 5.2
2015-Aug-22 06:33N 22°09' E 114°23'9 8.1
2015-Aug-22 05:28N 22°10' E 114°33'113 8.5
2015-Aug-21 16:09N 22°38' E 116°31'8 8.7
2015-Aug-21 15:13N 22°42' E 116°39'26 9.4
2015-Aug-21 12:25N 22°55' E 117°04'10 9.8
2015-Aug-21 11:26N 23°01' E 117°12'39 9.8
2015-Aug-21 07:30N 23°29' E 117°41'1111.5
2015-Aug-21 06:31N 23°37' E 117°50'1111.5
2015-Aug-21 05:31N 23°45' E 117°59'1111.6
2015-Aug-21 04:33N 23°53' E 118°07'1211.8
2015-Aug-21 03:33N 24°02' E 118°15'1110.6
2015-Aug-21 02:33N 24°13' E 118°17'1212.5
2015-Aug-21 01:33N 24°22' E 118°08'9 7.3
2015-Aug-21 00:23N 24°27' E 118°00'0 0.0
2015-Aug-20 23:17N 24°27' E 118°00'0 0.0
2015-Aug-20 20:17N 24°27' E 118°00'0 0.0
2015-Aug-20 19:29N 24°27' E 118°00'0 0.0
2015-Aug-20 18:23N 24°27' E 118°00'0 0.0
2015-Aug-20 17:17N 24°27' E 118°00'0 0.0
2015-Aug-20 16:17N 24°27' E 118°00'0 0.0
2015-Aug-20 15:29N 24°27' E 118°00'0 0.0
2015-Aug-20 14:11N 24°27' E 118°00'0 0.0
2015-Aug-20 13:29N 24°27' E 118°00'0 0.0
2015-Aug-20 12:17N 24°27' E 118°00'0 0.2
2015-Aug-20 11:33N 24°27' E 118°00'8 8.2
2015-Aug-20 10:32N 24°22' E 118°08'8 8.1
2015-Aug-20 09:33N 24°16' E 118°14'1110.5
2015-Aug-20 08:31N 24°11' E 118°24'0 0.0
2015-Aug-20 03:13N 24°11' E 118°24'0 0.1
2015-Aug-19 21:33N 24°10' E 118°24'6 5.4
2015-Aug-19 20:30N 24°06' E 118°28'8 8.5
2015-Aug-19 19:33N 24°01' E 118°35'9 8.6
2015-Aug-19 18:29N 23°54' E 118°41'9 9.0
2015-Aug-19 17:32N 23°48' E 118°48'  
Track history (hours):
 
Tides and Currents Weather Stations Pressure Air Temp Water Temp Dewpoint Dewpoint Depression Visibility Wind Speed Wind Dir Waves Ship Positions

OOCL Long Beach

Last reported at 2015-Aug-25 06:30 UTC. Time now 2015-Sep-02 00:23 UTC.
Position N 22°14' E 114°49'.

Length 323 m; beam 42.8 m; draft 14.5 m.

Type: Cargo ship. MMSI: 477316000.

Date/timePositionNaut miles runAvg speedWind from/ knotsBaromVisibWave heightAir tempDewpointWater temp
2015-Aug-25 06:30N 22°14' E 114°49'3717.0
2015-Aug-25 04:21N 22°34' E 114°16'28 1.1
2015-Aug-24 03:14N 22°08' E 114°25'9 8.6
2015-Aug-24 02:12N 22°07' E 114°15'15 9.0
2015-Aug-24 00:33N 22°19' E 114°06'2 2.1
2015-Aug-23 23:23N 22°21' E 114°07'0 0.0
2015-Aug-23 22:29N 22°21' E 114°07'0 0.0
2015-Aug-23 21:32N 22°21' E 114°07'0 0.0
2015-Aug-23 20:32N 22°21' E 114°07'0 0.0
2015-Aug-23 19:32N 22°21' E 114°07'0 0.0
2015-Aug-23 18:32N 22°21' E 114°07'0 0.0
2015-Aug-23 17:14N 22°21' E 114°07'0 0.0
2015-Aug-23 15:29N 22°21' E 114°07'0 0.1
2015-Aug-23 14:33N 22°21' E 114°07'9 7.1
2015-Aug-23 13:19N 22°21' E 113°57'10 9.8
2015-Aug-23 12:16N 22°29' E 113°52'4 0.3
2015-Aug-22 23:33N 22°25' E 113°53'1210.7
2015-Aug-22 22:26N 22°20' E 114°05'2 2.4
2015-Aug-22 21:32N 22°21' E 114°07'0 0.0
2015-Aug-22 20:29N 22°21' E 114°07'0 0.0
2015-Aug-22 19:32N 22°21' E 114°07'0 0.0
2015-Aug-22 18:29N 22°21' E 114°07'0 0.0
2015-Aug-22 17:29N 22°21' E 114°07'0 0.0
2015-Aug-22 16:32N 22°21' E 114°07'0 0.0
2015-Aug-22 15:32N 22°21' E 114°07'0 0.0
2015-Aug-22 14:32N 22°21' E 114°07'0 0.0
2015-Aug-22 13:32N 22°21' E 114°07'0 0.0
2015-Aug-22 12:32N 22°21' E 114°07'0 0.0
2015-Aug-22 11:32N 22°21' E 114°07'0 0.0
2015-Aug-22 10:32N 22°21' E 114°07'0 0.1
2015-Aug-22 09:33N 22°21' E 114°07'8 7.6
2015-Aug-22 08:26N 22°13' E 114°10'8 9.1
2015-Aug-22 07:33N 22°09' E 114°18'5 5.2
2015-Aug-22 06:33N 22°09' E 114°23'9 8.1
2015-Aug-22 05:28N 22°10' E 114°33'113 8.5
2015-Aug-21 16:09N 22°38' E 116°31'8 8.7
2015-Aug-21 15:13N 22°42' E 116°39'26 9.4
2015-Aug-21 12:25N 22°55' E 117°04'10 9.8
2015-Aug-21 11:26N 23°01' E 117°12'39 9.8
2015-Aug-21 07:30N 23°29' E 117°41'1111.5
2015-Aug-21 06:31N 23°37' E 117°50'1111.5
2015-Aug-21 05:31N 23°45' E 117°59'1111.6
2015-Aug-21 04:33N 23°53' E 118°07'1211.8
2015-Aug-21 03:33N 24°02' E 118°15'1110.6
2015-Aug-21 02:33N 24°13' E 118°17'1212.5
2015-Aug-21 01:33N 24°22' E 118°08'9 7.3
2015-Aug-21 00:23N 24°27' E 118°00'0 0.0
2015-Aug-20 23:17N 24°27' E 118°00'0 0.0
2015-Aug-20 20:17N 24°27' E 118°00'0 0.0
2015-Aug-20 19:29N 24°27' E 118°00'0 0.0
2015-Aug-20 18:23N 24°27' E 118°00'0 0.0
2015-Aug-20 17:17N 24°27' E 118°00'0 0.0
2015-Aug-20 16:17N 24°27' E 118°00'0 0.0
2015-Aug-20 15:29N 24°27' E 118°00'0 0.0
2015-Aug-20 14:11N 24°27' E 118°00'0 0.0
2015-Aug-20 13:29N 24°27' E 118°00'0 0.0
2015-Aug-20 12:17N 24°27' E 118°00'0 0.2
2015-Aug-20 11:33N 24°27' E 118°00'8 8.2
2015-Aug-20 10:32N 24°22' E 118°08'8 8.1
2015-Aug-20 09:33N 24°16' E 118°14'1110.5
2015-Aug-20 08:31N 24°11' E 118°24'0 0.0
2015-Aug-20 03:13N 24°11' E 118°24'0 0.1
2015-Aug-19 21:33N 24°10' E 118°24'6 5.4
2015-Aug-19 20:30N 24°06' E 118°28'8 8.5
2015-Aug-19 19:33N 24°01' E 118°35'9 8.6
2015-Aug-19 18:29N 23°54' E 118°41'9 9.0
2015-Aug-19 17:32N 23°48' E 118°48'  

Dump ship's entire track history